Time;durP1;ratioP1;P1;durP2;ratioP2;P2;SDS_P1;SDS_P2;PMS_P1;PMS_P2;Temp;Humidity;BMP_temperature;BMP_pressure;BME280_temperature;BME280_humidity;BME280_pressure;Samples;Min_cycle;Max_cycle;Signal;HPM_P1;HPM_P2
2021/06/22 00:01:09;;;;;;;1.27;1.17;;;;;;;;;;5072759;28;20186;-87
2021/06/22 00:03:37;;;;;;;1.20;1.20;;;;;;;;;;5072922;28;20555;-87
2021/06/22 00:06:05;;;;;;;3.08;1.60;;;;;;;;;;5072984;28;20296;-88
2021/06/22 00:08:33;;;;;;;1.10;1.10;;;;;;;;;;5072332;28;20182;-88
2021/06/22 00:11:00;;;;;;;1.30;1.30;;;;;;;;;;5072828;28;20208;-88
2021/06/22 00:13:29;;;;;;;1.25;1.25;;;;;;;;;;5072824;28;20209;-88
2021/06/22 00:15:58;;;;;;;1.63;1.52;;;;;;;;;;5073349;28;20185;-87
2021/06/22 00:18:25;;;;;;;1.73;1.40;;;;;;;;;;5073418;28;20652;-87
2021/06/22 00:20:55;;;;;;;1.60;1.50;;;;;;;;;;5072677;28;20627;-87
2021/06/22 00:23:22;;;;;;;1.67;1.58;;;;;;;;;;5073176;28;20189;-86
2021/06/22 00:25:50;;;;;;;1.75;1.65;;;;;;;;;;5073211;28;20195;-87
2021/06/22 00:28:18;;;;;;;1.65;1.55;;;;;;;;;;5073055;28;20181;-88
2021/06/22 00:30:46;;;;;;;1.60;1.50;;;;;;;;;;5072560;28;20201;-88
2021/06/22 00:33:15;;;;;;;1.60;1.50;;;;;;;;;;5073679;28;20191;-88
2021/06/22 00:35:43;;;;;;;1.20;1.20;;;;;;;;;;5072948;28;20185;-87
2021/06/22 00:38:13;;;;;;;1.63;1.52;;;;;;;;;;5072640;28;20181;-89
2021/06/22 00:40:40;;;;;;;1.30;1.30;;;;;;;;;;5072503;28;20221;-87
2021/06/22 00:43:11;;;;;;;1.27;1.27;;;;;;;;;;5072997;28;20184;-87
2021/06/22 00:45:42;;;;;;;1.73;1.63;;;;;;;;;;5072645;28;20675;-87
2021/06/22 00:48:11;;;;;;;2.38;1.30;;;;;;;;;;5072499;28;20204;-88
2021/06/22 00:50:41;;;;;;;1.77;1.67;;;;;;;;;;5072232;28;20232;-88
2021/06/22 00:53:10;;;;;;;1.80;1.50;;;;;;;;;;5072477;28;20576;-87
2021/06/22 00:55:43;;;;;;;1.50;1.40;;;;;;;;;;5072033;28;20214;-88
2021/06/22 00:58:12;;;;;;;1.85;1.45;;;;;;;;;;5072272;28;20185;-88
2021/06/22 01:00:40;;;;;;;1.10;1.10;;;;;;;;;;5071806;28;20300;-87
2021/06/22 01:03:08;;;;;;;1.55;1.45;;;;;;;;;;5072015;28;20195;-86
2021/06/22 01:05:35;;;;;;;1.55;1.35;;;;;;;;;;5072132;28;20197;-88
2021/06/22 01:08:05;;;;;;;1.63;1.17;;;;;;;;;;5071664;28;20651;-88
2021/06/22 01:10:32;;;;;;;1.42;1.30;;;;;;;;;;5071171;28;20229;-87
2021/06/22 01:13:00;;;;;;;1.10;1.10;;;;;;;;;;5070605;28;20269;-87
2021/06/22 01:15:30;;;;;;;1.20;1.20;;;;;;;;;;5071061;28;20181;-88
2021/06/22 01:18:00;;;;;;;1.17;1.17;;;;;;;;;;5070669;28;20185;-87
2021/06/22 01:20:31;;;;;;;1.52;1.42;;;;;;;;;;5070504;28;20251;-87
2021/06/22 01:23:02;;;;;;;1.00;1.00;;;;;;;;;;5070758;28;20215;-88
2021/06/22 01:25:30;;;;;;;1.50;1.40;;;;;;;;;;5070839;28;20185;-87
2021/06/22 01:27:59;;;;;;;1.15;1.10;;;;;;;;;;5070191;28;20702;-86
2021/06/22 01:30:30;;;;;;;1.33;1.23;;;;;;;;;;5068314;28;20225;-87
2021/06/22 01:33:00;;;;;;;1.00;0.82;;;;;;;;;;5070395;28;20181;-87
2021/06/22 01:35:28;;;;;;;1.08;1.08;;;;;;;;;;5070354;28;20632;-88
2021/06/22 01:37:59;;;;;;;1.23;1.10;;;;;;;;;;5070512;28;20192;-86
2021/06/22 01:40:28;;;;;;;0.90;0.90;;;;;;;;;;5069947;28;20711;-87
2021/06/22 01:42:59;;;;;;;0.90;0.90;;;;;;;;;;5070519;28;20674;-87
2021/06/22 01:45:27;;;;;;;1.20;1.13;;;;;;;;;;5069315;28;20177;-88
2021/06/22 01:47:55;;;;;;;1.15;1.15;;;;;;;;;;5070609;28;20207;-87
2021/06/22 01:50:23;;;;;;;1.67;1.00;;;;;;;;;;5068653;28;20229;-87
2021/06/22 01:52:52;;;;;;;1.23;1.10;;;;;;;;;;5069924;28;20192;-88
2021/06/22 01:55:40;;;;;;;0.90;0.90;;;;;;;;;;5070285;28;20222;-88
2021/06/22 01:58:11;;;;;;;2.22;1.20;;;;;;;;;;5069970;28;20617;-88
2021/06/22 02:00:50;;;;;;;1.20;1.20;;;;;;;;;;5066944;28;20217;-87
2021/06/22 02:06:40;;;;;;;1.88;1.65;;;;;;;;;;5025954;28;20201;-86
2021/06/22 02:09:08;;;;;;;2.17;1.30;;;;;;;;;;5062056;28;79211;-87
2021/06/22 02:11:37;;;;;;;2.13;2.03;;;;;;;;;;5050397;28;20225;-88
2021/06/22 02:14:06;;;;;;;1.13;1.13;;;;;;;;;;5072385;28;20182;-88
2021/06/22 02:16:34;;;;;;;2.80;1.50;;;;;;;;;;5073343;28;20189;-87
2021/06/22 02:19:10;;;;;;;1.33;1.23;;;;;;;;;;5066075;28;20303;-88
2021/06/22 02:21:37;;;;;;;1.48;1.38;;;;;;;;;;5052752;28;20201;-88
2021/06/22 02:24:06;;;;;;;1.27;1.25;;;;;;;;;;5066755;28;20395;-88
2021/06/22 02:26:36;;;;;;;1.27;1.20;;;;;;;;;;5072087;28;20201;-88
2021/06/22 02:29:03;;;;;;;1.50;1.40;;;;;;;;;;5072654;28;20573;-87
2021/06/22 02:31:41;;;;;;;1.38;1.27;;;;;;;;;;5072651;28;20225;-88
2021/06/22 02:34:20;;;;;;;1.58;1.48;;;;;;;;;;5072682;28;20181;-88
2021/06/22 02:36:48;;;;;;;1.13;1.13;;;;;;;;;;5072688;28;20554;-90
2021/06/22 02:39:18;;;;;;;1.55;1.48;;;;;;;;;;5070743;28;20312;-88
2021/06/22 02:41:54;;;;;;;1.80;1.70;;;;;;;;;;5072757;28;20268;-87
2021/06/22 02:44:44;;;;;;;1.65;1.55;;;;;;;;;;5072917;28;20195;-89
2021/06/22 02:47:18;;;;;;;1.50;1.40;;;;;;;;;;5072987;28;20264;-89
2021/06/22 02:49:55;;;;;;;1.50;1.40;;;;;;;;;;5072812;28;20592;-89
2021/06/22 02:52:32;;;;;;;1.38;1.38;;;;;;;;;;5072994;28;20205;-89
2021/06/22 02:55:00;;;;;;;1.40;1.30;;;;;;;;;;5072704;28;20642;-88
2021/06/22 02:57:56;;;;;;;1.10;1.10;;;;;;;;;;5075557;28;20215;-89
2021/06/22 03:00:32;;;;;;;2.05;1.15;;;;;;;;;;5076605;28;20736;-89
2021/06/22 03:03:00;;;;;;;2.25;1.27;;;;;;;;;;5074729;28;20650;-85
2021/06/22 03:05:28;;;;;;;1.05;1.00;;;;;;;;;;5074678;28;20217;-87
2021/06/22 03:07:55;;;;;;;1.40;1.30;;;;;;;;;;5074965;28;20192;-86
2021/06/22 03:10:24;;;;;;;2.03;1.20;;;;;;;;;;5074228;28;20233;-87
2021/06/22 03:12:54;;;;;;;1.30;1.20;;;;;;;;;;5073555;28;20296;-85
2021/06/22 03:15:23;;;;;;;0.98;0.98;;;;;;;;;;5074071;28;20197;-86
2021/06/22 03:17:51;;;;;;;1.98;1.10;;;;;;;;;;5071948;28;20228;-87
2021/06/22 03:20:19;;;;;;;1.65;1.55;;;;;;;;;;5073089;28;20217;-85
2021/06/22 03:22:47;;;;;;;1.42;1.42;;;;;;;;;;5073167;28;20201;-87
2021/06/22 03:25:15;;;;;;;1.67;1.30;;;;;;;;;;5073237;28;20204;-87
2021/06/22 03:27:44;;;;;;;2.20;1.55;;;;;;;;;;5073251;28;20201;-87
2021/06/22 03:30:15;;;;;;;1.30;1.20;;;;;;;;;;5073468;28;20217;-87
2021/06/22 03:32:45;;;;;;;1.50;1.40;;;;;;;;;;5073650;28;20205;-86
2021/06/22 03:35:14;;;;;;;1.10;1.10;;;;;;;;;;5074160;28;20205;-87
2021/06/22 03:37:42;;;;;;;1.42;1.30;;;;;;;;;;5074074;28;20189;-87
2021/06/22 03:40:10;;;;;;;1.45;1.35;;;;;;;;;;5073972;28;20699;-87
2021/06/22 03:42:38;;;;;;;1.85;1.75;;;;;;;;;;5073369;28;20583;-87
2021/06/22 03:45:08;;;;;;;1.77;1.67;;;;;;;;;;5073757;28;20208;-85
2021/06/22 03:47:37;;;;;;;1.75;1.65;;;;;;;;;;5073871;28;20691;-86
2021/06/22 03:50:06;;;;;;;1.90;1.70;;;;;;;;;;5074189;28;20251;-86
2021/06/22 03:52:34;;;;;;;1.70;1.60;;;;;;;;;;5073228;28;20691;-85
2021/06/22 03:55:02;;;;;;;1.58;1.48;;;;;;;;;;5073591;28;20197;-86
2021/06/22 03:57:29;;;;;;;1.70;1.60;;;;;;;;;;5073277;28;20212;-86
2021/06/22 03:59:57;;;;;;;1.17;1.17;;;;;;;;;;5073614;28;20224;-86
2021/06/22 04:02:24;;;;;;;1.63;1.52;;;;;;;;;;5072710;28;20212;-85
2021/06/22 04:04:53;;;;;;;1.67;1.58;;;;;;;;;;5072514;28;20204;-86
2021/06/22 04:07:20;;;;;;;2.08;1.88;;;;;;;;;;5072560;28;20564;-86
2021/06/22 04:09:48;;;;;;;1.80;1.70;;;;;;;;;;5072711;28;20243;-86
2021/06/22 04:12:15;;;;;;;1.73;1.63;;;;;;;;;;5073523;28;20221;-86
2021/06/22 04:14:43;;;;;;;3.92;1.80;;;;;;;;;;5073938;28;20683;-86
2021/06/22 04:17:10;;;;;;;1.70;1.60;;;;;;;;;;5073226;28;20589;-86
2021/06/22 04:19:37;;;;;;;2.17;1.60;;;;;;;;;;5072819;28;20235;-86
2021/06/22 04:22:06;;;;;;;1.70;1.60;;;;;;;;;;5072645;28;20204;-86
2021/06/22 04:24:34;;;;;;;2.13;1.77;;;;;;;;;;5072811;28;20185;-86
2021/06/22 04:27:01;;;;;;;2.10;2.00;;;;;;;;;;5072727;28;20181;-86
2021/06/22 04:29:28;;;;;;;2.08;1.98;;;;;;;;;;5073098;28;20221;-86
2021/06/22 04:31:56;;;;;;;2.00;1.90;;;;;;;;;;5072512;28;20679;-86
2021/06/22 04:34:23;;;;;;;2.13;1.92;;;;;;;;;;5073070;28;20185;-86
2021/06/22 04:36:53;;;;;;;2.88;2.47;;;;;;;;;;5072751;28;20221;-86
2021/06/22 04:39:22;;;;;;;2.58;2.30;;;;;;;;;;5072297;28;20220;-86
2021/06/22 04:41:49;;;;;;;2.97;1.92;;;;;;;;;;5072860;28;20192;-87
2021/06/22 04:44:16;;;;;;;2.38;2.17;;;;;;;;;;5075057;28;20662;-87
2021/06/22 04:46:44;;;;;;;2.65;2.45;;;;;;;;;;5073591;28;20209;-86
2021/06/22 04:49:11;;;;;;;2.05;1.83;;;;;;;;;;5071753;28;20602;-87
2021/06/22 04:51:39;;;;;;;2.20;2.00;;;;;;;;;;5072178;28;20201;-87
2021/06/22 04:54:07;;;;;;;2.83;2.10;;;;;;;;;;5072519;28;20570;-86
2021/06/22 04:56:36;;;;;;;1.88;1.77;;;;;;;;;;5073303;28;20682;-87
2021/06/22 04:59:04;;;;;;;2.28;2.08;;;;;;;;;;5072955;28;20221;-86
2021/06/22 05:01:32;;;;;;;3.60;1.85;;;;;;;;;;5072376;28;20218;-87
2021/06/22 05:03:59;;;;;;;2.75;1.98;;;;;;;;;;5072187;28;20193;-86
2021/06/22 05:06:26;;;;;;;2.22;2.03;;;;;;;;;;5071824;28;20174;-86
2021/06/22 05:08:54;;;;;;;2.65;2.05;;;;;;;;;;5071739;28;20229;-87
2021/06/22 05:11:21;;;;;;;1.83;1.73;;;;;;;;;;5071710;28;20201;-87
2021/06/22 05:13:51;;;;;;;1.92;1.80;;;;;;;;;;5072422;28;20208;-86
2021/06/22 05:16:18;;;;;;;2.38;1.90;;;;;;;;;;5072660;28;20204;-86
2021/06/22 05:18:45;;;;;;;1.80;1.67;;;;;;;;;;5070554;28;20217;-86
2021/06/22 05:21:13;;;;;;;2.17;1.98;;;;;;;;;;5071279;28;20215;-85
2021/06/22 05:23:41;;;;;;;1.90;1.80;;;;;;;;;;5071722;28;20217;-86
2021/06/22 05:26:08;;;;;;;1.92;1.80;;;;;;;;;;5071335;28;20662;-84
2021/06/22 05:28:36;;;;;;;2.17;2.03;;;;;;;;;;5071141;28;20193;-86
2021/06/22 05:31:05;;;;;;;2.45;1.75;;;;;;;;;;5070851;28;20204;-86
2021/06/22 05:33:34;;;;;;;1.60;1.50;;;;;;;;;;5071196;28;20220;-87
2021/06/22 05:36:01;;;;;;;1.85;1.30;;;;;;;;;;5070178;28;20587;-86
2021/06/22 05:38:29;;;;;;;1.60;1.50;;;;;;;;;;5070569;28;20205;-86
2021/06/22 05:40:56;;;;;;;1.90;1.52;;;;;;;;;;5070815;28;20207;-87
2021/06/22 05:43:23;;;;;;;1.67;1.30;;;;;;;;;;5070807;28;20208;-87
2021/06/22 05:45:51;;;;;;;1.08;0.98;;;;;;;;;;5070298;28;20205;-86
2021/06/22 05:48:20;;;;;;;2.38;1.58;;;;;;;;;;5070328;28;20196;-87
2021/06/22 05:50:47;;;;;;;1.38;1.27;;;;;;;;;;5070719;28;20186;-88
2021/06/22 05:53:14;;;;;;;1.50;1.40;;;;;;;;;;5070486;28;20323;-86
2021/06/22 05:55:42;;;;;;;1.38;1.30;;;;;;;;;;5070771;28;20199;-87
2021/06/22 05:58:09;;;;;;;2.53;1.23;;;;;;;;;;5070459;28;20191;-87
2021/06/22 06:00:37;;;;;;;1.05;1.02;;;;;;;;;;5070653;28;20224;-86
2021/06/22 06:03:06;;;;;;;0.90;0.90;;;;;;;;;;5070590;28;20185;-87
2021/06/22 06:05:35;;;;;;;0.95;0.93;;;;;;;;;;5070347;28;20279;-87
2021/06/22 06:08:03;;;;;;;1.10;1.10;;;;;;;;;;5070473;28;20246;-87
2021/06/22 06:10:32;;;;;;;1.20;1.02;;;;;;;;;;5070048;28;20232;-87
2021/06/22 06:12:59;;;;;;;1.38;1.27;;;;;;;;;;5070311;28;20303;-87
2021/06/22 06:15:27;;;;;;;1.08;1.08;;;;;;;;;;5069846;28;20622;-87
2021/06/22 06:17:54;;;;;;;1.40;1.23;;;;;;;;;;5070192;28;20202;-87
2021/06/22 06:20:21;;;;;;;0.82;0.82;;;;;;;;;;5070168;28;20213;-87
2021/06/22 06:22:50;;;;;;;1.20;1.00;;;;;;;;;;5070812;28;20197;-87
2021/06/22 06:25:18;;;;;;;2.50;1.10;;;;;;;;;;5070108;28;20212;-87
2021/06/22 06:27:52;;;;;;;2.20;1.33;;;;;;;;;;5070350;28;20567;-86
2021/06/22 06:30:23;;;;;;;1.40;1.30;;;;;;;;;;5069925;28;20252;-87
2021/06/22 06:32:53;;;;;;;1.08;0.98;;;;;;;;;;5070372;28;20201;-87
2021/06/22 06:35:21;;;;;;;1.25;1.15;;;;;;;;;;5070138;28;20189;-87
2021/06/22 06:37:50;;;;;;;0.90;0.90;;;;;;;;;;5069526;28;20212;-86
2021/06/22 06:40:18;;;;;;;1.52;1.20;;;;;;;;;;5069623;28;20209;-87
2021/06/22 06:42:46;;;;;;;1.70;1.20;;;;;;;;;;5070488;28;20185;-87
2021/06/22 06:45:15;;;;;;;1.00;1.00;;;;;;;;;;5070315;28;20207;-87
2021/06/22 06:47:43;;;;;;;1.33;1.20;;;;;;;;;;5069911;28;20189;-87
2021/06/22 06:50:11;;;;;;;1.17;1.17;;;;;;;;;;5070740;28;20418;-88
2021/06/22 06:52:39;;;;;;;1.02;1.02;;;;;;;;;;5070241;28;20190;-87
2021/06/22 06:55:25;;;;;;;1.35;1.17;;;;;;;;;;5069785;28;20221;-88
2021/06/22 06:57:54;;;;;;;1.33;1.15;;;;;;;;;;5070249;28;20204;-88
2021/06/22 07:00:23;;;;;;;1.60;1.50;;;;;;;;;;5070235;28;20219;-87
2021/06/22 07:02:54;;;;;;;1.30;1.20;;;;;;;;;;5075969;28;20502;-89
2021/06/22 07:05:21;;;;;;;3.30;1.60;;;;;;;;;;5070046;28;20197;-87
2021/06/22 07:07:49;;;;;;;1.23;1.23;;;;;;;;;;5069756;28;20181;-88
2021/06/22 07:10:18;;;;;;;1.90;1.52;;;;;;;;;;5068744;28;21029;-88
2021/06/22 07:12:47;;;;;;;1.40;1.30;;;;;;;;;;5069161;28;20212;-88
2021/06/22 07:15:16;;;;;;;1.50;1.30;;;;;;;;;;5069199;28;20217;-89
2021/06/22 07:17:44;;;;;;;2.28;1.30;;;;;;;;;;5068453;28;20220;-88
2021/06/22 07:20:12;;;;;;;1.42;1.27;;;;;;;;;;5068811;28;20721;-87
2021/06/22 07:22:41;;;;;;;3.55;1.92;;;;;;;;;;5069260;28;20192;-87
2021/06/22 07:25:09;;;;;;;2.30;2.10;;;;;;;;;;5068803;28;20197;-89
2021/06/22 07:27:38;;;;;;;1.65;1.55;;;;;;;;;;5068174;28;20201;-89
2021/06/22 07:30:08;;;;;;;1.95;1.38;;;;;;;;;;5068734;28;20271;-87
2021/06/22 07:32:35;;;;;;;2.55;1.98;;;;;;;;;;5069130;28;20190;-88
2021/06/22 07:35:04;;;;;;;1.88;1.60;;;;;;;;;;5068728;28;20205;-88
2021/06/22 07:37:32;;;;;;;1.67;1.30;;;;;;;;;;5069282;28;20560;-88
2021/06/22 07:40:00;;;;;;;1.50;1.40;;;;;;;;;;5068891;28;20312;-89
2021/06/22 07:42:28;;;;;;;1.83;1.67;;;;;;;;;;5070623;28;20566;-86
2021/06/22 07:44:56;;;;;;;1.88;1.50;;;;;;;;;;5073062;28;20189;-87
2021/06/22 07:47:24;;;;;;;1.67;1.58;;;;;;;;;;5072679;28;20209;-86
2021/06/22 07:49:51;;;;;;;2.03;1.30;;;;;;;;;;5072281;28;20221;-88
2021/06/22 07:52:20;;;;;;;1.70;1.60;;;;;;;;;;5072510;28;20211;-88
2021/06/22 07:54:48;;;;;;;2.28;1.45;;;;;;;;;;5072388;28;20211;-87
2021/06/22 07:57:15;;;;;;;1.98;1.73;;;;;;;;;;5072401;28;20184;-88
2021/06/22 07:59:43;;;;;;;1.70;1.60;;;;;;;;;;5072813;28;20239;-87
2021/06/22 08:02:12;;;;;;;1.73;1.58;;;;;;;;;;5072676;28;20559;-87
2021/06/22 08:04:39;;;;;;;2.40;1.70;;;;;;;;;;5072307;28;20654;-88
2021/06/22 08:07:07;;;;;;;1.15;1.10;;;;;;;;;;5072830;28;20186;-87
2021/06/22 08:09:35;;;;;;;1.65;1.55;;;;;;;;;;5072029;28;20232;-89
2021/06/22 08:12:02;;;;;;;1.42;1.40;;;;;;;;;;5072405;28;20181;-88
2021/06/22 08:14:30;;;;;;;1.63;1.52;;;;;;;;;;5072216;28;20232;-88
2021/06/22 08:16:57;;;;;;;2.10;1.92;;;;;;;;;;5071942;28;20181;-87
2021/06/22 08:19:26;;;;;;;2.35;1.42;;;;;;;;;;5071875;28;20221;-87
2021/06/22 08:21:54;;;;;;;1.45;1.35;;;;;;;;;;5072162;28;20185;-89
2021/06/22 08:24:21;;;;;;;1.33;1.20;;;;;;;;;;5071851;28;20197;-89
2021/06/22 08:26:49;;;;;;;1.15;1.15;;;;;;;;;;5072344;28;20196;-87
2021/06/22 08:29:16;;;;;;;1.50;1.40;;;;;;;;;;5072007;28;20260;-88
2021/06/22 08:31:44;;;;;;;1.30;1.20;;;;;;;;;;5072426;28;20280;-89
2021/06/22 08:34:11;;;;;;;1.40;1.30;;;;;;;;;;5071960;28;20695;-88
2021/06/22 08:36:40;;;;;;;1.15;1.05;;;;;;;;;;5071583;28;20207;-88
2021/06/22 08:39:07;;;;;;;1.20;1.20;;;;;;;;;;5071544;28;20727;-88
2021/06/22 08:41:35;;;;;;;1.08;1.08;;;;;;;;;;5072024;28;20663;-89
2021/06/22 08:44:05;;;;;;;1.45;1.35;;;;;;;;;;5071834;28;20201;-89
2021/06/22 08:46:32;;;;;;;2.22;1.70;;;;;;;;;;5071727;28;20196;-88
2021/06/22 08:49:02;;;;;;;1.50;1.40;;;;;;;;;;5071525;28;20221;-88
2021/06/22 08:51:29;;;;;;;1.73;1.40;;;;;;;;;;5071972;28;20209;-89
2021/06/22 08:53:59;;;;;;;1.45;1.35;;;;;;;;;;5071324;28;20291;-89
2021/06/22 08:56:27;;;;;;;1.52;1.42;;;;;;;;;;5071767;28;20224;-89
2021/06/22 08:58:54;;;;;;;5.28;1.67;;;;;;;;;;5072087;28;20217;-88
2021/06/22 09:01:22;;;;;;;1.00;1.00;;;;;;;;;;5072215;28;20204;-89
2021/06/22 09:03:49;;;;;;;1.20;1.20;;;;;;;;;;5072091;28;20181;-89
2021/06/22 09:06:17;;;;;;;1.58;1.48;;;;;;;;;;5072005;28;20628;-89
2021/06/22 09:08:52;;;;;;;2.63;1.38;;;;;;;;;;5072459;28;20711;-89
2021/06/22 09:11:21;;;;;;;1.85;1.67;;;;;;;;;;5072676;28;20218;-89
2021/06/22 09:13:57;;;;;;;2.42;1.50;;;;;;;;;;5072362;28;20251;-88
2021/06/22 09:16:25;;;;;;;1.48;1.38;;;;;;;;;;5071937;28;20225;-88
2021/06/22 09:18:53;;;;;;;1.60;1.50;;;;;;;;;;5071628;28;20594;-88
2021/06/22 09:21:23;;;;;;;1.50;1.40;;;;;;;;;;5071445;28;20209;-87
2021/06/22 09:23:51;;;;;;;1.50;1.40;;;;;;;;;;5071235;28;20225;-88
2021/06/22 09:26:23;;;;;;;2.33;1.92;;;;;;;;;;5070833;28;20188;-88
2021/06/22 09:28:52;;;;;;;2.42;1.95;;;;;;;;;;5070992;28;20239;-88
2021/06/22 09:31:23;;;;;;;1.75;1.65;;;;;;;;;;5070892;28;20223;-89
2021/06/22 09:33:53;;;;;;;2.63;2.42;;;;;;;;;;5070578;28;20197;-88
2021/06/22 09:36:25;;;;;;;1.73;1.60;;;;;;;;;;5070545;28;20227;-89
2021/06/22 09:38:55;;;;;;;1.70;1.60;;;;;;;;;;5070563;28;20228;-88
2021/06/22 09:41:26;;;;;;;1.40;1.30;;;;;;;;;;5070571;28;20269;-89
2021/06/22 09:44:01;;;;;;;2.10;1.60;;;;;;;;;;5070777;28;20651;-88
2021/06/22 09:46:37;;;;;;;1.55;1.45;;;;;;;;;;5070887;28;20199;-88
2021/06/22 09:49:06;;;;;;;1.75;1.33;;;;;;;;;;5069993;28;20225;-88
2021/06/22 09:51:37;;;;;;;1.65;1.55;;;;;;;;;;5070477;28;20192;-88
2021/06/22 09:54:17;;;;;;;1.90;1.80;;;;;;;;;;5070646;28;20196;-87
2021/06/22 09:57:14;;;;;;;3.78;2.05;;;;;;;;;;5070299;28;20228;-88
2021/06/22 09:59:53;;;;;;;1.83;1.73;;;;;;;;;;5070269;28;20274;-88
2021/06/22 10:02:26;;;;;;;1.20;1.20;;;;;;;;;;5070490;28;20197;-89
2021/06/22 10:04:55;;;;;;;2.30;1.70;;;;;;;;;;5069565;28;20181;-89
2021/06/22 10:07:24;;;;;;;1.90;1.80;;;;;;;;;;5070257;28;20201;-88
2021/06/22 10:09:54;;;;;;;2.55;1.58;;;;;;;;;;5070606;28;20282;-89
2021/06/22 10:12:25;;;;;;;1.92;1.40;;;;;;;;;;5070065;28;20304;-89
2021/06/22 10:14:54;;;;;;;1.73;1.63;;;;;;;;;;5070188;28;20635;-90
2021/06/22 10:17:25;;;;;;;1.98;1.52;;;;;;;;;;5069638;28;20188;-89
2021/06/22 10:19:55;;;;;;;1.92;1.83;;;;;;;;;;5070118;28;20615;-88
2021/06/22 10:22:26;;;;;;;3.17;1.75;;;;;;;;;;5070199;28;20243;-88
2021/06/22 10:24:56;;;;;;;1.60;1.50;;;;;;;;;;5069978;28;20283;-88
2021/06/22 10:27:25;;;;;;;2.05;1.95;;;;;;;;;;5070589;28;20197;-88
2021/06/22 10:29:55;;;;;;;6.18;2.88;;;;;;;;;;5069504;28;20213;-87
2021/06/22 10:32:26;;;;;;;2.33;2.22;;;;;;;;;;5069732;28;20200;-87
2021/06/22 10:34:56;;;;;;;2.00;1.85;;;;;;;;;;5069884;28;20207;-87
2021/06/22 10:37:27;;;;;;;2.63;1.80;;;;;;;;;;5069551;28;20207;-88
2021/06/22 10:39:57;;;;;;;2.88;2.10;;;;;;;;;;5069783;28;20215;-87
2021/06/22 10:42:27;;;;;;;3.00;2.13;;;;;;;;;;5069476;28;20219;-87
2021/06/22 10:45:03;;;;;;;2.08;1.80;;;;;;;;;;5069684;28;20195;-88
2021/06/22 10:47:33;;;;;;;2.50;1.70;;;;;;;;;;5069478;28;20208;-88
2021/06/22 10:50:14;;;;;;;3.05;2.03;;;;;;;;;;5070023;28;20248;-88
2021/06/22 10:52:54;;;;;;;1.70;1.60;;;;;;;;;;5069734;28;20178;-87
2021/06/22 10:55:24;;;;;;;2.13;1.70;;;;;;;;;;5069444;28;20193;-87
2021/06/22 10:58:12;;;;;;;1.70;1.60;;;;;;;;;;5069141;28;20211;-87
2021/06/22 11:01:19;;;;;;;1.80;1.70;;;;;;;;;;5071928;28;20588;-87
2021/06/22 11:04:06;;;;;;;2.63;2.42;;;;;;;;;;5069622;28;20181;-88
2021/06/22 11:06:34;;;;;;;2.13;1.80;;;;;;;;;;5069404;28;20254;-87
2021/06/22 11:09:22;;;;;;;2.20;2.00;;;;;;;;;;5069176;28;20235;-87
2021/06/22 11:11:49;;;;;;;1.70;1.60;;;;;;;;;;5061093;28;20683;-87
2021/06/22 11:14:19;;;;;;;1.70;1.58;;;;;;;;;;5069624;28;20185;-87
2021/06/22 11:16:47;;;;;;;1.80;1.70;;;;;;;;;;5069500;28;20252;-87
2021/06/22 11:19:15;;;;;;;1.48;1.38;;;;;;;;;;5073229;28;20267;-88
2021/06/22 11:21:55;;;;;;;2.35;1.77;;;;;;;;;;5073342;28;20193;-88
2021/06/22 11:24:27;;;;;;;1.85;1.70;;;;;;;;;;5073638;28;20189;-87
2021/06/22 11:27:11;;;;;;;1.77;1.67;;;;;;;;;;5073137;28;20192;-87
2021/06/22 11:29:49;;;;;;;1.90;1.75;;;;;;;;;;5073199;28;20224;-87
2021/06/22 11:32:39;;;;;;;2.95;1.92;;;;;;;;;;5066819;28;20205;-87
2021/06/22 11:35:15;;;;;;;1.90;1.80;;;;;;;;;;5073840;28;20197;-89
2021/06/22 11:37:45;;;;;;;2.10;1.98;;;;;;;;;;5072982;28;20225;-87
2021/06/22 11:40:22;;;;;;;2.35;2.10;;;;;;;;;;5072785;28;20217;-87
2021/06/22 11:43:09;;;;;;;1.92;1.83;;;;;;;;;;5060214;28;20668;-89
2021/06/22 11:45:39;;;;;;;2.63;2.40;;;;;;;;;;5052140;28;20206;-88
2021/06/22 11:48:12;;;;;;;3.15;2.20;;;;;;;;;;5052964;28;20682;-88
2021/06/22 11:50:56;;;;;;;1.95;1.80;;;;;;;;;;5052907;28;20218;-91
2021/06/22 11:53:34;;;;;;;1.85;1.75;;;;;;;;;;5054609;28;20208;-89
2021/06/22 11:56:02;;;;;;;1.90;1.80;;;;;;;;;;5054779;28;20189;-88
2021/06/22 11:58:34;;;;;;;2.38;2.17;;;;;;;;;;5054515;28;20597;-89
2021/06/22 12:01:06;;;;;;;1.90;1.70;;;;;;;;;;5054326;28;20610;-88
2021/06/22 12:03:38;;;;;;;2.20;2.10;;;;;;;;;;5054171;28;20202;-89
2021/06/22 12:06:11;;;;;;;1.65;1.55;;;;;;;;;;5054020;28;20197;-89
2021/06/22 12:08:40;;;;;;;2.05;1.83;;;;;;;;;;5053753;28;20240;-88
2021/06/22 12:11:12;;;;;;;1.75;1.65;;;;;;;;;;5054322;28;20320;-88
2021/06/22 12:13:45;;;;;;;1.60;1.50;;;;;;;;;;5053265;28;20742;-91
2021/06/22 12:16:20;;;;;;;2.00;1.90;;;;;;;;;;5053079;28;20190;-89
2021/06/22 12:18:49;;;;;;;2.22;2.10;;;;;;;;;;5052455;28;20213;-89
2021/06/22 12:21:19;;;;;;;2.55;2.38;;;;;;;;;;5052981;28;20672;-89
2021/06/22 12:23:46;;;;;;;3.17;2.42;;;;;;;;;;5053231;28;20208;-89
2021/06/22 12:26:17;;;;;;;2.10;1.90;;;;;;;;;;5053302;28;20264;-90
2021/06/22 12:28:46;;;;;;;3.42;1.90;;;;;;;;;;5072226;28;20244;-89
2021/06/22 12:31:15;;;;;;;1.90;1.80;;;;;;;;;;5072972;28;20276;-87
2021/06/22 12:33:45;;;;;;;2.08;1.63;;;;;;;;;;5073142;28;20238;-90
2021/06/22 12:36:18;;;;;;;2.63;2.40;;;;;;;;;;5072779;28;20304;-88
2021/06/22 12:38:45;;;;;;;2.45;2.25;;;;;;;;;;5072473;28;20586;-88
2021/06/22 12:41:14;;;;;;;2.53;2.33;;;;;;;;;;5072663;28;20268;-89
2021/06/22 12:43:51;;;;;;;3.97;2.05;;;;;;;;;;5071806;28;20207;-90
2021/06/22 12:46:23;;;;;;;1.92;1.83;;;;;;;;;;5071844;28;20794;-90
2021/06/22 12:48:58;;;;;;;4.20;2.03;;;;;;;;;;5071079;28;20316;-88
2021/06/22 12:51:26;;;;;;;2.15;1.95;;;;;;;;;;5070459;28;20192;-90
2021/06/22 12:53:54;;;;;;;2.60;2.40;;;;;;;;;;5069920;28;20209;-87
2021/06/22 12:56:26;;;;;;;2.92;2.65;;;;;;;;;;5070914;28;20192;-87
2021/06/22 12:58:57;;;;;;;2.08;1.98;;;;;;;;;;5070651;28;20282;-87
2021/06/22 13:01:39;;;;;;;2.97;2.72;;;;;;;;;;5070359;28;20747;-87
2021/06/22 13:04:09;;;;;;;2.28;2.10;;;;;;;;;;5071642;28;20193;-87
2021/06/22 13:06:39;;;;;;;2.13;2.03;;;;;;;;;;5071459;28;20570;-87
2021/06/22 13:09:09;;;;;;;2.40;2.28;;;;;;;;;;5070859;28;20243;-88
2021/06/22 13:11:39;;;;;;;3.22;2.72;;;;;;;;;;5071424;28;20570;-88
2021/06/22 13:14:16;;;;;;;2.00;1.90;;;;;;;;;;5071199;28;20189;-87
2021/06/22 13:16:55;;;;;;;2.65;2.28;;;;;;;;;;5071160;28;20201;-86
2021/06/22 13:19:23;;;;;;;2.28;2.08;;;;;;;;;;5071011;28;20220;-88
2021/06/22 13:21:53;;;;;;;1.98;1.70;;;;;;;;;;5070797;28;20546;-88
2021/06/22 13:24:47;;;;;;;1.83;1.73;;;;;;;;;;5070833;28;20199;-87
2021/06/22 13:27:26;;;;;;;2.00;1.90;;;;;;;;;;5071247;28;20631;-88
2021/06/22 13:29:58;;;;;;;2.00;1.80;;;;;;;;;;5070887;28;20604;-87
2021/06/22 13:32:31;;;;;;;3.40;2.85;;;;;;;;;;5071391;28;20566;-88
2021/06/22 13:35:00;;;;;;;2.10;1.90;;;;;;;;;;5070648;28;20177;-88
2021/06/22 13:37:28;;;;;;;2.10;1.92;;;;;;;;;;5070795;28;20216;-88
2021/06/22 13:39:59;;;;;;;2.67;2.42;;;;;;;;;;5070288;28;20686;-87
2021/06/22 13:42:30;;;;;;;2.35;2.20;;;;;;;;;;5070645;28;20200;-88
2021/06/22 13:45:10;;;;;;;1.83;1.73;;;;;;;;;;5071192;28;20216;-88
2021/06/22 13:47:42;;;;;;;2.20;2.10;;;;;;;;;;5070739;28;20201;-87
2021/06/22 13:50:21;;;;;;;8.32;2.38;;;;;;;;;;5070507;28;20589;-87
2021/06/22 13:52:51;;;;;;;2.30;2.15;;;;;;;;;;5070711;28;20212;-88
2021/06/22 13:55:33;;;;;;;2.53;2.30;;;;;;;;;;5070266;28;20754;-87
2021/06/22 13:58:03;;;;;;;2.55;2.28;;;;;;;;;;5070634;28;20616;-88
2021/06/22 14:00:32;;;;;;;2.85;2.40;;;;;;;;;;5070426;28;20217;-87
2021/06/22 14:03:02;;;;;;;2.40;2.20;;;;;;;;;;5070249;28;20185;-87
2021/06/22 14:05:32;;;;;;;2.28;2.03;;;;;;;;;;5070416;28;20574;-87
2021/06/22 14:08:00;;;;;;;2.60;2.40;;;;;;;;;;5071129;28;20205;-88
2021/06/22 14:10:30;;;;;;;2.63;2.38;;;;;;;;;;5069994;28;20268;-88
2021/06/22 14:12:57;;;;;;;3.15;2.60;;;;;;;;;;5070144;28;20203;-87
2021/06/22 14:15:25;;;;;;;2.95;2.75;;;;;;;;;;5070426;28;20209;-87
2021/06/22 14:17:54;;;;;;;2.35;2.15;;;;;;;;;;5070249;28;20266;-87
2021/06/22 14:20:24;;;;;;;2.72;2.15;;;;;;;;;;5070133;28;20232;-87
2021/06/22 14:22:52;;;;;;;2.15;2.05;;;;;;;;;;5070453;28;20291;-87
2021/06/22 14:25:20;;;;;;;2.08;1.90;;;;;;;;;;5070234;28;20644;-87
2021/06/22 14:27:47;;;;;;;2.72;2.35;;;;;;;;;;5070166;28;20205;-87
2021/06/22 14:30:16;;;;;;;5.05;2.72;;;;;;;;;;5070302;28;20665;-88
2021/06/22 14:32:45;;;;;;;1.98;1.75;;;;;;;;;;5070256;28;20201;-87
2021/06/22 14:35:14;;;;;;;2.25;2.10;;;;;;;;;;5070219;28;20587;-88
2021/06/22 14:37:44;;;;;;;2.38;2.22;;;;;;;;;;5069968;28;20201;-88
2021/06/22 14:40:14;;;;;;;2.42;2.20;;;;;;;;;;5070761;28;20248;-87
2021/06/22 14:42:42;;;;;;;3.13;2.88;;;;;;;;;;5070032;28;20613;-86
2021/06/22 14:45:12;;;;;;;2.78;2.30;;;;;;;;;;5070655;28;20203;-87
2021/06/22 14:47:41;;;;;;;3.58;2.70;;;;;;;;;;5070108;28;20300;-86
2021/06/22 14:50:11;;;;;;;2.97;2.47;;;;;;;;;;5070880;28;20594;-87
2021/06/22 14:52:38;;;;;;;2.55;2.35;;;;;;;;;;5072959;28;20628;-90
2021/06/22 14:57:52;;;;;;;2.70;2.38;;;;;;;;;;5073216;28;20236;-87
2021/06/22 15:00:20;;;;;;;3.10;2.00;;;;;;;;;;5073971;28;20224;-87
2021/06/22 15:02:47;;;;;;;3.83;2.67;;;;;;;;;;5073929;28;20189;-89
2021/06/22 15:05:15;;;;;;;3.33;3.00;;;;;;;;;;5074253;28;20590;-88
2021/06/22 15:07:43;;;;;;;3.35;2.53;;;;;;;;;;5073920;28;20571;-84